sensor_id;sensor_type;location;lat;lon;timestamp;temperature;humidity
6792;DHT22;3433;48.730;9.108;2022-08-01T00:01:56;22.60;69.30
6792;DHT22;3433;48.730;9.108;2022-08-01T00:04:43;22.60;69.00
6792;DHT22;3433;48.730;9.108;2022-08-01T00:07:31;22.60;69.30
6792;DHT22;3433;48.730;9.108;2022-08-01T00:10:18;22.60;69.10
6792;DHT22;3433;48.730;9.108;2022-08-01T00:13:07;22.60;69.00
6792;DHT22;3433;48.730;9.108;2022-08-01T00:15:54;22.50;69.00
6792;DHT22;3433;48.730;9.108;2022-08-01T00:18:42;22.50;69.20
6792;DHT22;3433;48.730;9.108;2022-08-01T00:21:29;22.60;69.50
6792;DHT22;3433;48.730;9.108;2022-08-01T00:24:16;22.50;69.20
6792;DHT22;3433;48.730;9.108;2022-08-01T00:27:03;22.40;69.50
6792;DHT22;3433;48.730;9.108;2022-08-01T00:29:52;22.40;69.80
6792;DHT22;3433;48.730;9.108;2022-08-01T00:32:39;22.40;69.60
6792;DHT22;3433;48.730;9.108;2022-08-01T00:35:27;22.30;69.80
6792;DHT22;3433;48.730;9.108;2022-08-01T00:38:14;22.30;70.30
6792;DHT22;3433;48.730;9.108;2022-08-01T00:41:01;22.30;69.70
6792;DHT22;3433;48.730;9.108;2022-08-01T00:43:49;22.30;69.90
6792;DHT22;3433;48.730;9.108;2022-08-01T00:46:37;22.30;69.90
6792;DHT22;3433;48.730;9.108;2022-08-01T00:49:25;22.30;70.00
6792;DHT22;3433;48.730;9.108;2022-08-01T00:52:12;22.30;70.00
6792;DHT22;3433;48.730;9.108;2022-08-01T00:54:59;22.20;70.10
6792;DHT22;3433;48.730;9.108;2022-08-01T00:57:47;22.10;70.00
6792;DHT22;3433;48.730;9.108;2022-08-01T01:00:35;22.20;70.20
6792;DHT22;3433;48.730;9.108;2022-08-01T01:03:24;22.10;70.40
6792;DHT22;3433;48.730;9.108;2022-08-01T01:06:18;22.10;70.40
6792;DHT22;3433;48.730;9.108;2022-08-01T01:09:27;22.00;70.80
6792;DHT22;3433;48.730;9.108;2022-08-01T01:12:25;21.90;70.60
6792;DHT22;3433;48.730;9.108;2022-08-01T01:15:17;21.90;70.60
6792;DHT22;3433;48.730;9.108;2022-08-01T01:18:09;21.90;71.60
6792;DHT22;3433;48.730;9.108;2022-08-01T01:21:05;21.90;71.20
6792;DHT22;3433;48.730;9.108;2022-08-01T01:24:07;21.80;71.20
6792;DHT22;3433;48.730;9.108;2022-08-01T01:27:03;21.90;71.20
6792;DHT22;3433;48.730;9.108;2022-08-01T01:29:56;21.90;71.10
6792;DHT22;3433;48.730;9.108;2022-08-01T01:32:48;21.90;71.30
6792;DHT22;3433;48.730;9.108;2022-08-01T01:35:40;21.90;71.20
6792;DHT22;3433;48.730;9.108;2022-08-01T01:38:33;21.80;71.20
6792;DHT22;3433;48.730;9.108;2022-08-01T01:41:21;21.70;71.80
6792;DHT22;3433;48.730;9.108;2022-08-01T01:44:10;21.70;71.50
6792;DHT22;3433;48.730;9.108;2022-08-01T01:47:00;21.70;71.90
6792;DHT22;3433;48.730;9.108;2022-08-01T01:49:48;21.60;72.20
6792;DHT22;3433;48.730;9.108;2022-08-01T01:52:37;21.70;71.90
6792;DHT22;3433;48.730;9.108;2022-08-01T01:55:26;21.60;72.10
6792;DHT22;3433;48.730;9.108;2022-08-01T01:58:16;21.60;72.10
6792;DHT22;3433;48.730;9.108;2022-08-01T02:01:06;21.60;72.20
6792;DHT22;3433;48.730;9.108;2022-08-01T02:03:56;21.60;72.40
6792;DHT22;3433;48.730;9.108;2022-08-01T02:06:46;21.50;75.50
6792;DHT22;3433;48.730;9.108;2022-08-01T02:09:34;21.50;73.00
6792;DHT22;3433;48.730;9.108;2022-08-01T02:12:22;21.50;72.70
6792;DHT22;3433;48.730;9.108;2022-08-01T02:15:11;21.50;73.00
6792;DHT22;3433;48.730;9.108;2022-08-01T02:18:01;21.50;73.90
6792;DHT22;3433;48.730;9.108;2022-08-01T02:20:51;21.50;73.50
6792;DHT22;3433;48.730;9.108;2022-08-01T02:23:40;21.50;73.60
6792;DHT22;3433;48.730;9.108;2022-08-01T02:26:29;21.50;74.40
6792;DHT22;3433;48.730;9.108;2022-08-01T02:29:22;21.50;76.80
6792;DHT22;3433;48.730;9.108;2022-08-01T02:32:14;21.50;74.40
6792;DHT22;3433;48.730;9.108;2022-08-01T02:35:05;21.50;74.00
6792;DHT22;3433;48.730;9.108;2022-08-01T02:37:57;21.50;74.50
6792;DHT22;3433;48.730;9.108;2022-08-01T02:40:47;21.60;74.00
6792;DHT22;3433;48.730;9.108;2022-08-01T02:43:38;21.60;74.60
6792;DHT22;3433;48.730;9.108;2022-08-01T02:46:31;21.50;74.80
6792;DHT22;3433;48.730;9.108;2022-08-01T02:49:22;21.60;75.90
6792;DHT22;3433;48.730;9.108;2022-08-01T02:52:14;21.50;75.20
6792;DHT22;3433;48.730;9.108;2022-08-01T02:55:05;21.50;74.00
6792;DHT22;3433;48.730;9.108;2022-08-01T02:57:53;21.50;74.20
6792;DHT22;3433;48.730;9.108;2022-08-01T03:00:42;21.50;74.10
6792;DHT22;3433;48.730;9.108;2022-08-01T03:03:30;21.50;74.00
6792;DHT22;3433;48.730;9.108;2022-08-01T03:06:18;21.40;74.40
6792;DHT22;3433;48.730;9.108;2022-08-01T03:09:07;21.40;74.30
6792;DHT22;3433;48.730;9.108;2022-08-01T03:11:59;21.40;74.30
6792;DHT22;3433;48.730;9.108;2022-08-01T03:14:49;21.30;74.30
6792;DHT22;3433;48.730;9.108;2022-08-01T03:17:37;21.30;74.60
6792;DHT22;3433;48.730;9.108;2022-08-01T03:20:27;21.20;74.40
6792;DHT22;3433;48.730;9.108;2022-08-01T03:23:17;21.20;74.40
6792;DHT22;3433;48.730;9.108;2022-08-01T03:26:06;21.20;74.60
6792;DHT22;3433;48.730;9.108;2022-08-01T03:28:58;21.10;74.60
6792;DHT22;3433;48.730;9.108;2022-08-01T03:31:48;21.10;75.20
6792;DHT22;3433;48.730;9.108;2022-08-01T03:34:36;21.00;75.40
6792;DHT22;3433;48.730;9.108;2022-08-01T03:37:25;20.90;77.90
6792;DHT22;3433;48.730;9.108;2022-08-01T03:40:16;20.90;75.60
6792;DHT22;3433;48.730;9.108;2022-08-01T03:43:07;20.90;75.60
6792;DHT22;3433;48.730;9.108;2022-08-01T03:46:01;20.90;75.50
6792;DHT22;3433;48.730;9.108;2022-08-01T03:48:55;20.80;76.70
6792;DHT22;3433;48.730;9.108;2022-08-01T03:51:47;20.80;76.10
6792;DHT22;3433;48.730;9.108;2022-08-01T03:54:38;20.80;76.40
6792;DHT22;3433;48.730;9.108;2022-08-01T03:57:28;20.80;75.60
6792;DHT22;3433;48.730;9.108;2022-08-01T04:00:16;20.80;76.30
6792;DHT22;3433;48.730;9.108;2022-08-01T04:03:07;20.80;76.10
6792;DHT22;3433;48.730;9.108;2022-08-01T04:05:55;20.80;76.20
6792;DHT22;3433;48.730;9.108;2022-08-01T04:08:42;20.80;76.10
6792;DHT22;3433;48.730;9.108;2022-08-01T04:11:41;20.80;76.40
6792;DHT22;3433;48.730;9.108;2022-08-01T04:14:28;20.80;76.80
6792;DHT22;3433;48.730;9.108;2022-08-01T04:17:15;20.80;76.70
6792;DHT22;3433;48.730;9.108;2022-08-01T04:20:05;20.80;76.80
6792;DHT22;3433;48.730;9.108;2022-08-01T04:22:52;20.80;77.00
6792;DHT22;3433;48.730;9.108;2022-08-01T04:25:40;20.80;77.00
6792;DHT22;3433;48.730;9.108;2022-08-01T04:28:30;20.80;77.10
6792;DHT22;3433;48.730;9.108;2022-08-01T04:31:18;20.80;77.50
6792;DHT22;3433;48.730;9.108;2022-08-01T04:34:06;20.90;77.80
6792;DHT22;3433;48.730;9.108;2022-08-01T04:36:55;20.90;78.40
6792;DHT22;3433;48.730;9.108;2022-08-01T04:39:44;20.80;78.60
6792;DHT22;3433;48.730;9.108;2022-08-01T04:42:33;20.90;78.00
6792;DHT22;3433;48.730;9.108;2022-08-01T04:45:21;20.90;79.20
6792;DHT22;3433;48.730;9.108;2022-08-01T04:48:09;20.90;79.70
6792;DHT22;3433;48.730;9.108;2022-08-01T04:50:57;20.90;78.80
6792;DHT22;3433;48.730;9.108;2022-08-01T04:53:46;20.90;78.70
6792;DHT22;3433;48.730;9.108;2022-08-01T04:56:33;21.00;79.60
6792;DHT22;3433;48.730;9.108;2022-08-01T04:59:21;21.00;79.60
6792;DHT22;3433;48.730;9.108;2022-08-01T05:02:26;21.00;79.30
6792;DHT22;3433;48.730;9.108;2022-08-01T05:05:15;21.10;79.60
6792;DHT22;3433;48.730;9.108;2022-08-01T05:08:02;21.10;80.00
6792;DHT22;3433;48.730;9.108;2022-08-01T05:10:51;21.20;79.70
6792;DHT22;3433;48.730;9.108;2022-08-01T05:13:38;21.30;79.80
6792;DHT22;3433;48.730;9.108;2022-08-01T05:16:26;21.30;80.20
6792;DHT22;3433;48.730;9.108;2022-08-01T05:19:13;21.40;81.40
6792;DHT22;3433;48.730;9.108;2022-08-01T05:22:01;21.50;80.60
6792;DHT22;3433;48.730;9.108;2022-08-01T05:24:50;21.60;82.30
6792;DHT22;3433;48.730;9.108;2022-08-01T05:27:39;21.70;82.80
6792;DHT22;3433;48.730;9.108;2022-08-01T05:30:27;21.80;82.30
6792;DHT22;3433;48.730;9.108;2022-08-01T05:33:14;22.00;83.20
6792;DHT22;3433;48.730;9.108;2022-08-01T05:36:02;22.00;84.60
6792;DHT22;3433;48.730;9.108;2022-08-01T05:38:49;22.00;83.70
6792;DHT22;3433;48.730;9.108;2022-08-01T05:41:37;22.10;83.70
6792;DHT22;3433;48.730;9.108;2022-08-01T05:44:26;22.10;83.90
6792;DHT22;3433;48.730;9.108;2022-08-01T05:47:13;22.30;84.10
6792;DHT22;3433;48.730;9.108;2022-08-01T05:50:01;22.40;83.90
6792;DHT22;3433;48.730;9.108;2022-08-01T05:52:48;22.40;84.60
6792;DHT22;3433;48.730;9.108;2022-08-01T05:55:35;22.50;83.50
6792;DHT22;3433;48.730;9.108;2022-08-01T05:58:22;22.70;84.30
6792;DHT22;3433;48.730;9.108;2022-08-01T06:01:11;22.70;84.80
6792;DHT22;3433;48.730;9.108;2022-08-01T06:03:58;22.80;84.40
6792;DHT22;3433;48.730;9.108;2022-08-01T06:06:46;22.80;85.60
6792;DHT22;3433;48.730;9.108;2022-08-01T06:09:33;23.00;85.20
6792;DHT22;3433;48.730;9.108;2022-08-01T06:12:20;23.00;85.80
6792;DHT22;3433;48.730;9.108;2022-08-01T06:15:08;23.10;85.60
6792;DHT22;3433;48.730;9.108;2022-08-01T06:17:57;23.30;84.90
6792;DHT22;3433;48.730;9.108;2022-08-01T06:20:44;23.40;85.10
6792;DHT22;3433;48.730;9.108;2022-08-01T06:23:31;23.50;86.00
6792;DHT22;3433;48.730;9.108;2022-08-01T06:26:18;23.50;84.60
6792;DHT22;3433;48.730;9.108;2022-08-01T06:29:06;23.60;85.20
6792;DHT22;3433;48.730;9.108;2022-08-01T06:31:53;23.60;86.70
6792;DHT22;3433;48.730;9.108;2022-08-01T06:34:41;23.60;85.70
6792;DHT22;3433;48.730;9.108;2022-08-01T06:37:29;23.60;86.30
6792;DHT22;3433;48.730;9.108;2022-08-01T06:40:16;23.70;85.30
6792;DHT22;3433;48.730;9.108;2022-08-01T06:43:04;23.70;85.80
6792;DHT22;3433;48.730;9.108;2022-08-01T06:45:51;23.80;85.90
6792;DHT22;3433;48.730;9.108;2022-08-01T06:48:38;23.90;86.20
6792;DHT22;3433;48.730;9.108;2022-08-01T06:51:27;23.90;86.10
6792;DHT22;3433;48.730;9.108;2022-08-01T06:54:14;24.10;86.70
6792;DHT22;3433;48.730;9.108;2022-08-01T06:57:05;24.20;85.80
6792;DHT22;3433;48.730;9.108;2022-08-01T06:59:52;24.40;85.80
6792;DHT22;3433;48.730;9.108;2022-08-01T07:02:39;24.50;85.10
6792;DHT22;3433;48.730;9.108;2022-08-01T07:05:27;24.60;85.10
6792;DHT22;3433;48.730;9.108;2022-08-01T07:08:18;24.80;85.20
6792;DHT22;3433;48.730;9.108;2022-08-01T07:11:05;24.90;85.40
6792;DHT22;3433;48.730;9.108;2022-08-01T07:13:52;25.20;84.30
6792;DHT22;3433;48.730;9.108;2022-08-01T07:16:39;25.20;85.20
6792;DHT22;3433;48.730;9.108;2022-08-01T07:19:27;25.40;84.10
6792;DHT22;3433;48.730;9.108;2022-08-01T07:22:14;25.50;83.50
6792;DHT22;3433;48.730;9.108;2022-08-01T07:25:04;25.60;83.30
6792;DHT22;3433;48.730;9.108;2022-08-01T07:27:51;25.60;82.80
6792;DHT22;3433;48.730;9.108;2022-08-01T07:30:39;25.80;82.80
6792;DHT22;3433;48.730;9.108;2022-08-01T07:33:27;25.90;81.70
6792;DHT22;3433;48.730;9.108;2022-08-01T07:36:15;26.10;82.40
6792;DHT22;3433;48.730;9.108;2022-08-01T07:39:02;26.20;82.40
6792;DHT22;3433;48.730;9.108;2022-08-01T07:41:50;26.50;82.00
6792;DHT22;3433;48.730;9.108;2022-08-01T07:44:38;26.60;81.60
6792;DHT22;3433;48.730;9.108;2022-08-01T07:47:25;26.50;81.10
6792;DHT22;3433;48.730;9.108;2022-08-01T07:50:13;26.80;81.90
6792;DHT22;3433;48.730;9.108;2022-08-01T07:53:00;26.90;81.00
6792;DHT22;3433;48.730;9.108;2022-08-01T07:55:48;27.00;79.70
6792;DHT22;3433;48.730;9.108;2022-08-01T07:58:37;26.70;80.40
6792;DHT22;3433;48.730;9.108;2022-08-01T08:01:24;26.70;80.80
6792;DHT22;3433;48.730;9.108;2022-08-01T08:04:12;27.00;81.20
6792;DHT22;3433;48.730;9.108;2022-08-01T08:07:00;27.10;81.10
6792;DHT22;3433;48.730;9.108;2022-08-01T08:09:47;27.50;80.80
6792;DHT22;3433;48.730;9.108;2022-08-01T08:12:34;27.60;80.50
6792;DHT22;3433;48.730;9.108;2022-08-01T08:15:23;27.50;80.00
6792;DHT22;3433;48.730;9.108;2022-08-01T08:18:10;27.80;80.90
6792;DHT22;3433;48.730;9.108;2022-08-01T08:20:57;28.00;79.10
6792;DHT22;3433;48.730;9.108;2022-08-01T08:23:44;28.30;79.60
6792;DHT22;3433;48.730;9.108;2022-08-01T08:26:52;28.30;78.50
6792;DHT22;3433;48.730;9.108;2022-08-01T08:29:40;28.30;79.50
6792;DHT22;3433;48.730;9.108;2022-08-01T08:32:29;28.30;78.60
6792;DHT22;3433;48.730;9.108;2022-08-01T08:35:16;28.20;79.40
6792;DHT22;3433;48.730;9.108;2022-08-01T08:38:03;28.20;77.90
6792;DHT22;3433;48.730;9.108;2022-08-01T08:40:50;28.00;77.60
6792;DHT22;3433;48.730;9.108;2022-08-01T08:43:38;27.80;78.90
6792;DHT22;3433;48.730;9.108;2022-08-01T08:46:25;27.90;78.60
6792;DHT22;3433;48.730;9.108;2022-08-01T08:49:18;28.10;78.60
6792;DHT22;3433;48.730;9.108;2022-08-01T08:52:05;28.00;78.50
6792;DHT22;3433;48.730;9.108;2022-08-01T08:54:53;28.20;77.50
6792;DHT22;3433;48.730;9.108;2022-08-01T08:57:43;28.30;77.50
6792;DHT22;3433;48.730;9.108;2022-08-01T09:00:31;28.30;77.40
6792;DHT22;3433;48.730;9.108;2022-08-01T09:03:18;28.30;78.20
6792;DHT22;3433;48.730;9.108;2022-08-01T09:06:07;28.40;77.40
6792;DHT22;3433;48.730;9.108;2022-08-01T09:08:54;28.40;77.50
6792;DHT22;3433;48.730;9.108;2022-08-01T09:11:42;28.20;76.70
6792;DHT22;3433;48.730;9.108;2022-08-01T09:14:29;28.10;77.60
6792;DHT22;3433;48.730;9.108;2022-08-01T09:17:17;28.00;77.10
6792;DHT22;3433;48.730;9.108;2022-08-01T09:20:05;28.00;77.70
6792;DHT22;3433;48.730;9.108;2022-08-01T09:22:53;28.30;77.30
6792;DHT22;3433;48.730;9.108;2022-08-01T09:25:50;28.50;77.50
6792;DHT22;3433;48.730;9.108;2022-08-01T09:28:40;28.90;77.00
6792;DHT22;3433;48.730;9.108;2022-08-01T09:31:28;29.10;75.70
6792;DHT22;3433;48.730;9.108;2022-08-01T09:34:16;29.10;74.70
6792;DHT22;3433;48.730;9.108;2022-08-01T09:37:03;29.10;75.00
6792;DHT22;3433;48.730;9.108;2022-08-01T09:39:56;29.20;75.40
6792;DHT22;3433;48.730;9.108;2022-08-01T09:42:43;29.50;77.10
6792;DHT22;3433;48.730;9.108;2022-08-01T09:45:34;29.30;74.80
6792;DHT22;3433;48.730;9.108;2022-08-01T09:48:22;29.20;75.30
6792;DHT22;3433;48.730;9.108;2022-08-01T09:51:09;29.40;74.40
6792;DHT22;3433;48.730;9.108;2022-08-01T09:53:57;29.30;75.20
6792;DHT22;3433;48.730;9.108;2022-08-01T09:56:46;29.30;76.00
6792;DHT22;3433;48.730;9.108;2022-08-01T09:59:34;29.70;75.70
6792;DHT22;3433;48.730;9.108;2022-08-01T10:02:31;30.10;75.50
6792;DHT22;3433;48.730;9.108;2022-08-01T10:05:30;30.30;74.70
6792;DHT22;3433;48.730;9.108;2022-08-01T10:08:17;30.20;73.40
6792;DHT22;3433;48.730;9.108;2022-08-01T10:11:11;30.40;73.10
6792;DHT22;3433;48.730;9.108;2022-08-01T10:14:02;30.60;74.80
6792;DHT22;3433;48.730;9.108;2022-08-01T10:16:49;30.90;74.70
6792;DHT22;3433;48.730;9.108;2022-08-01T10:19:40;30.70;73.20
6792;DHT22;3433;48.730;9.108;2022-08-01T10:22:30;30.60;74.80
6792;DHT22;3433;48.730;9.108;2022-08-01T10:25:20;30.50;74.10
6792;DHT22;3433;48.730;9.108;2022-08-01T10:28:13;30.40;74.30
6792;DHT22;3433;48.730;9.108;2022-08-01T10:31:03;30.20;74.40
6792;DHT22;3433;48.730;9.108;2022-08-01T10:33:50;30.20;72.20
6792;DHT22;3433;48.730;9.108;2022-08-01T10:36:38;30.40;73.30
6792;DHT22;3433;48.730;9.108;2022-08-01T10:39:26;30.60;72.60
6792;DHT22;3433;48.730;9.108;2022-08-01T10:42:15;30.80;73.50
6792;DHT22;3433;48.730;9.108;2022-08-01T10:45:03;31.10;73.50
6792;DHT22;3433;48.730;9.108;2022-08-01T10:47:58;31.10;72.40
6792;DHT22;3433;48.730;9.108;2022-08-01T10:50:48;31.00;70.90
6792;DHT22;3433;48.730;9.108;2022-08-01T10:53:35;30.90;71.40
6792;DHT22;3433;48.730;9.108;2022-08-01T10:56:23;31.30;71.90
6792;DHT22;3433;48.730;9.108;2022-08-01T10:59:15;31.10;72.80
6792;DHT22;3433;48.730;9.108;2022-08-01T11:02:06;30.70;73.00
6792;DHT22;3433;48.730;9.108;2022-08-01T11:04:57;30.80;73.70
6792;DHT22;3433;48.730;9.108;2022-08-01T11:07:48;30.90;71.60
6792;DHT22;3433;48.730;9.108;2022-08-01T11:10:37;30.60;72.90
6792;DHT22;3433;48.730;9.108;2022-08-01T11:14:01;30.30;71.70
6792;DHT22;3433;48.730;9.108;2022-08-01T11:16:52;30.30;73.10
6792;DHT22;3433;48.730;9.108;2022-08-01T11:20:09;30.60;72.00
6792;DHT22;3433;48.730;9.108;2022-08-01T11:23:24;30.70;71.20
6792;DHT22;3433;48.730;9.108;2022-08-01T11:26:15;30.00;70.20
6792;DHT22;3433;48.730;9.108;2022-08-01T11:29:15;29.80;72.20
6792;DHT22;3433;48.730;9.108;2022-08-01T11:32:23;29.50;72.30
6792;DHT22;3433;48.730;9.108;2022-08-01T11:35:12;29.50;72.80
6792;DHT22;3433;48.730;9.108;2022-08-01T11:38:23;29.40;73.20
6792;DHT22;3433;48.730;9.108;2022-08-01T11:41:11;29.20;73.40
6792;DHT22;3433;48.730;9.108;2022-08-01T11:43:59;29.10;73.20
6792;DHT22;3433;48.730;9.108;2022-08-01T11:46:49;28.90;72.80
6792;DHT22;3433;48.730;9.108;2022-08-01T11:49:57;28.90;73.50
6792;DHT22;3433;48.730;9.108;2022-08-01T11:52:46;28.80;73.10
6792;DHT22;3433;48.730;9.108;2022-08-01T11:55:36;28.60;73.30
6792;DHT22;3433;48.730;9.108;2022-08-01T11:58:25;28.40;73.20
6792;DHT22;3433;48.730;9.108;2022-08-01T12:01:12;28.50;73.40
6792;DHT22;3433;48.730;9.108;2022-08-01T12:04:00;28.50;73.40
6792;DHT22;3433;48.730;9.108;2022-08-01T12:06:47;28.30;73.50
6792;DHT22;3433;48.730;9.108;2022-08-01T12:09:36;28.30;73.60
6792;DHT22;3433;48.730;9.108;2022-08-01T12:12:23;28.30;73.80
6792;DHT22;3433;48.730;9.108;2022-08-01T12:15:11;28.40;74.60
6792;DHT22;3433;48.730;9.108;2022-08-01T12:18:00;28.30;74.00
6792;DHT22;3433;48.730;9.108;2022-08-01T12:20:47;28.30;73.40
6792;DHT22;3433;48.730;9.108;2022-08-01T12:23:34;28.30;72.20
6792;DHT22;3433;48.730;9.108;2022-08-01T12:26:39;28.00;72.30
6792;DHT22;3433;48.730;9.108;2022-08-01T12:29:33;27.90;73.70
6792;DHT22;3433;48.730;9.108;2022-08-01T12:32:23;27.90;73.70
6792;DHT22;3433;48.730;9.108;2022-08-01T12:35:12;28.00;73.80
6792;DHT22;3433;48.730;9.108;2022-08-01T12:38:03;28.70;73.60
6792;DHT22;3433;48.730;9.108;2022-08-01T12:40:51;29.00;73.30
6792;DHT22;3433;48.730;9.108;2022-08-01T12:43:40;28.90;73.70
6792;DHT22;3433;48.730;9.108;2022-08-01T12:46:27;28.80;73.50
6792;DHT22;3433;48.730;9.108;2022-08-01T12:49:15;28.90;73.80
6792;DHT22;3433;48.730;9.108;2022-08-01T12:52:03;28.90;73.60
6792;DHT22;3433;48.730;9.108;2022-08-01T12:55:11;28.80;72.20
6792;DHT22;3433;48.730;9.108;2022-08-01T12:58:04;29.00;74.40
6792;DHT22;3433;48.730;9.108;2022-08-01T13:01:03;29.70;72.80
6792;DHT22;3433;48.730;9.108;2022-08-01T13:03:57;30.20;71.60
6792;DHT22;3433;48.730;9.108;2022-08-01T13:06:44;30.70;69.40
6792;DHT22;3433;48.730;9.108;2022-08-01T13:09:32;31.20;70.80
6792;DHT22;3433;48.730;9.108;2022-08-01T13:12:19;31.10;70.60
6792;DHT22;3433;48.730;9.108;2022-08-01T13:15:24;30.90;71.70
6792;DHT22;3433;48.730;9.108;2022-08-01T13:18:26;30.70;69.80
6792;DHT22;3433;48.730;9.108;2022-08-01T13:21:14;30.40;70.80
6792;DHT22;3433;48.730;9.108;2022-08-01T13:24:04;30.60;70.80
6792;DHT22;3433;48.730;9.108;2022-08-01T13:26:54;31.20;70.70
6792;DHT22;3433;48.730;9.108;2022-08-01T13:29:44;31.10;71.70
6792;DHT22;3433;48.730;9.108;2022-08-01T13:32:33;31.30;70.60
6792;DHT22;3433;48.730;9.108;2022-08-01T13:35:21;31.80;70.40
6792;DHT22;3433;48.730;9.108;2022-08-01T13:38:08;32.30;70.70
6792;DHT22;3433;48.730;9.108;2022-08-01T13:40:58;32.40;68.60
6792;DHT22;3433;48.730;9.108;2022-08-01T13:43:45;32.60;68.20
6792;DHT22;3433;48.730;9.108;2022-08-01T13:46:32;32.40;65.80
6792;DHT22;3433;48.730;9.108;2022-08-01T13:49:19;31.70;67.00
6792;DHT22;3433;48.730;9.108;2022-08-01T13:52:08;31.80;68.20
6792;DHT22;3433;48.730;9.108;2022-08-01T13:54:55;32.30;68.30
6792;DHT22;3433;48.730;9.108;2022-08-01T13:57:43;32.50;68.70
6792;DHT22;3433;48.730;9.108;2022-08-01T14:00:30;32.50;65.80
6792;DHT22;3433;48.730;9.108;2022-08-01T14:03:17;32.00;66.80
6792;DHT22;3433;48.730;9.108;2022-08-01T14:06:05;32.00;68.00
6792;DHT22;3433;48.730;9.108;2022-08-01T14:08:54;31.60;66.70
6792;DHT22;3433;48.730;9.108;2022-08-01T14:11:41;31.80;68.80
6792;DHT22;3433;48.730;9.108;2022-08-01T14:14:28;31.90;68.80
6792;DHT22;3433;48.730;9.108;2022-08-01T14:17:16;31.70;68.80
6792;DHT22;3433;48.730;9.108;2022-08-01T14:20:04;31.80;67.50
6792;DHT22;3433;48.730;9.108;2022-08-01T14:22:53;31.90;68.70
6792;DHT22;3433;48.730;9.108;2022-08-01T14:25:41;31.90;69.30
6792;DHT22;3433;48.730;9.108;2022-08-01T14:28:29;31.80;68.90
6792;DHT22;3433;48.730;9.108;2022-08-01T14:31:16;32.20;68.30
6792;DHT22;3433;48.730;9.108;2022-08-01T14:34:03;32.70;68.20
6792;DHT22;3433;48.730;9.108;2022-08-01T14:36:51;33.10;66.00
6792;DHT22;3433;48.730;9.108;2022-08-01T14:39:39;33.30;66.00
6792;DHT22;3433;48.730;9.108;2022-08-01T14:42:27;33.70;65.40
6792;DHT22;3433;48.730;9.108;2022-08-01T14:45:15;33.90;67.40
6792;DHT22;3433;48.730;9.108;2022-08-01T14:48:02;33.60;63.90
6792;DHT22;3433;48.730;9.108;2022-08-01T14:50:50;33.50;65.00
6792;DHT22;3433;48.730;9.108;2022-08-01T14:53:37;33.40;65.70
6792;DHT22;3433;48.730;9.108;2022-08-01T14:56:25;33.10;64.70
6792;DHT22;3433;48.730;9.108;2022-08-01T14:59:13;33.10;63.90
6792;DHT22;3433;48.730;9.108;2022-08-01T15:02:00;33.00;64.60
6792;DHT22;3433;48.730;9.108;2022-08-01T15:04:48;32.90;66.50
6792;DHT22;3433;48.730;9.108;2022-08-01T15:07:37;33.00;65.20
6792;DHT22;3433;48.730;9.108;2022-08-01T15:10:24;32.90;64.40
6792;DHT22;3433;48.730;9.108;2022-08-01T15:13:12;32.80;65.30
6792;DHT22;3433;48.730;9.108;2022-08-01T15:16:01;32.50;65.40
6792;DHT22;3433;48.730;9.108;2022-08-01T15:18:48;32.00;65.00
6792;DHT22;3433;48.730;9.108;2022-08-01T15:21:36;31.90;65.70
6792;DHT22;3433;48.730;9.108;2022-08-01T15:24:23;31.90;66.30
6792;DHT22;3433;48.730;9.108;2022-08-01T15:27:10;31.60;65.90
6792;DHT22;3433;48.730;9.108;2022-08-01T15:29:58;31.50;66.80
6792;DHT22;3433;48.730;9.108;2022-08-01T15:32:46;31.30;66.00
6792;DHT22;3433;48.730;9.108;2022-08-01T15:35:34;31.20;65.20
6792;DHT22;3433;48.730;9.108;2022-08-01T15:38:21;31.00;66.50
6792;DHT22;3433;48.730;9.108;2022-08-01T15:41:08;31.00;66.60
6792;DHT22;3433;48.730;9.108;2022-08-01T15:43:55;31.00;66.80
6792;DHT22;3433;48.730;9.108;2022-08-01T15:46:42;30.90;67.00
6792;DHT22;3433;48.730;9.108;2022-08-01T15:49:31;30.90;66.50
6792;DHT22;3433;48.730;9.108;2022-08-01T15:52:20;30.80;67.20
6792;DHT22;3433;48.730;9.108;2022-08-01T15:55:08;30.60;67.10
6792;DHT22;3433;48.730;9.108;2022-08-01T15:57:55;30.50;67.20
6792;DHT22;3433;48.730;9.108;2022-08-01T16:00:42;30.40;66.90
6792;DHT22;3433;48.730;9.108;2022-08-01T16:03:30;30.30;67.20
6792;DHT22;3433;48.730;9.108;2022-08-01T16:06:19;30.30;66.90
6792;DHT22;3433;48.730;9.108;2022-08-01T16:09:06;30.10;67.20
6792;DHT22;3433;48.730;9.108;2022-08-01T16:11:53;30.00;67.20
6792;DHT22;3433;48.730;9.108;2022-08-01T16:14:40;29.90;67.00
6792;DHT22;3433;48.730;9.108;2022-08-01T16:17:28;29.60;66.70
6792;DHT22;3433;48.730;9.108;2022-08-01T16:20:15;29.70;67.50
6792;DHT22;3433;48.730;9.108;2022-08-01T16:23:03;29.60;67.40
6792;DHT22;3433;48.730;9.108;2022-08-01T16:25:51;29.50;67.40
6792;DHT22;3433;48.730;9.108;2022-08-01T16:28:38;29.50;67.50
6792;DHT22;3433;48.730;9.108;2022-08-01T16:31:25;29.40;67.80
6792;DHT22;3433;48.730;9.108;2022-08-01T16:34:12;29.30;68.20
6792;DHT22;3433;48.730;9.108;2022-08-01T16:37:00;29.20;68.20
6792;DHT22;3433;48.730;9.108;2022-08-01T16:39:49;29.20;68.50
6792;DHT22;3433;48.730;9.108;2022-08-01T16:42:36;29.10;68.40
6792;DHT22;3433;48.730;9.108;2022-08-01T16:45:23;28.70;68.60
6792;DHT22;3433;48.730;9.108;2022-08-01T16:48:11;28.90;68.80
6792;DHT22;3433;48.730;9.108;2022-08-01T16:51:00;28.90;68.70
6792;DHT22;3433;48.730;9.108;2022-08-01T16:53:47;28.90;68.70
6792;DHT22;3433;48.730;9.108;2022-08-01T16:56:36;28.90;68.90
6792;DHT22;3433;48.730;9.108;2022-08-01T16:59:23;28.80;68.90
6792;DHT22;3433;48.730;9.108;2022-08-01T17:02:10;28.80;69.10
6792;DHT22;3433;48.730;9.108;2022-08-01T17:04:57;28.80;69.20
6792;DHT22;3433;48.730;9.108;2022-08-01T17:07:45;28.70;69.30
6792;DHT22;3433;48.730;9.108;2022-08-01T17:10:32;28.60;69.20
6792;DHT22;3433;48.730;9.108;2022-08-01T17:13:21;28.60;69.30
6792;DHT22;3433;48.730;9.108;2022-08-01T17:16:09;28.60;69.20
6792;DHT22;3433;48.730;9.108;2022-08-01T17:18:56;28.50;69.40
6792;DHT22;3433;48.730;9.108;2022-08-01T17:21:44;28.50;69.60
6792;DHT22;3433;48.730;9.108;2022-08-01T17:24:31;28.40;69.70
6792;DHT22;3433;48.730;9.108;2022-08-01T17:27:18;28.40;69.70
6792;DHT22;3433;48.730;9.108;2022-08-01T17:30:09;28.30;70.00
6792;DHT22;3433;48.730;9.108;2022-08-01T17:32:56;28.30;70.20
6792;DHT22;3433;48.730;9.108;2022-08-01T17:35:44;28.20;70.30
6792;DHT22;3433;48.730;9.108;2022-08-01T17:38:31;28.20;70.60
6792;DHT22;3433;48.730;9.108;2022-08-01T17:41:18;28.20;70.70
6792;DHT22;3433;48.730;9.108;2022-08-01T17:44:05;28.20;70.60
6792;DHT22;3433;48.730;9.108;2022-08-01T17:47:07;28.20;70.70
6792;DHT22;3433;48.730;9.108;2022-08-01T17:49:55;28.20;71.20
6792;DHT22;3433;48.730;9.108;2022-08-01T17:52:42;28.20;71.20
6792;DHT22;3433;48.730;9.108;2022-08-01T17:55:30;28.20;71.20
6792;DHT22;3433;48.730;9.108;2022-08-01T17:58:18;28.10;71.40
6792;DHT22;3433;48.730;9.108;2022-08-01T18:01:05;28.00;71.00
6792;DHT22;3433;48.730;9.108;2022-08-01T18:03:54;28.00;71.50
6792;DHT22;3433;48.730;9.108;2022-08-01T18:06:41;27.90;71.30
6792;DHT22;3433;48.730;9.108;2022-08-01T18:09:29;27.90;71.30
6792;DHT22;3433;48.730;9.108;2022-08-01T18:12:17;27.80;71.40
6792;DHT22;3433;48.730;9.108;2022-08-01T18:15:05;27.90;71.90
6792;DHT22;3433;48.730;9.108;2022-08-01T18:17:52;27.80;71.60
6792;DHT22;3433;48.730;9.108;2022-08-01T18:20:41;27.80;71.80
6792;DHT22;3433;48.730;9.108;2022-08-01T18:23:28;27.80;72.30
6792;DHT22;3433;48.730;9.108;2022-08-01T18:26:16;27.80;72.00